Time;durP1;ratioP1;P1;durP2;ratioP2;P2;SDS_P1;SDS_P2;PMS_P1;PMS_P2;Temp;Humidity;BMP_temperature;BMP_pressure;BME280_temperature;BME280_humidity;BME280_pressure;Samples;Min_cycle;Max_cycle;Signal;HPM_P1;HPM_P2
2022/07/30 00:01:28;;;;;;;16.00;10.38;;;14.90;99.90;;;;;;4956014;28;20043;-74
2022/07/30 00:03:53;;;;;;;18.25;10.25;;;14.80;99.90;;;;;;4955112;29;20043;-74
2022/07/30 00:06:19;;;;;;;16.05;9.75;;;14.80;99.90;;;;;;4954808;29;20047;-74
2022/07/30 00:08:45;;;;;;;16.27;9.38;;;14.80;99.90;;;;;;4954775;29;20082;-75
2022/07/30 00:11:11;;;;;;;16.52;10.02;;;14.80;99.90;;;;;;4954587;29;20126;-76
2022/07/30 00:13:37;;;;;;;14.75;9.30;;;14.80;99.90;;;;;;4954701;29;20047;-75
2022/07/30 00:16:02;;;;;;;18.67;10.45;;;14.80;99.90;;;;;;4953692;28;20043;-76
2022/07/30 00:18:28;;;;;;;16.48;9.45;;;14.80;99.90;;;;;;4955667;28;20047;-76
2022/07/30 00:20:54;;;;;;;25.13;10.63;;;14.70;99.90;;;;;;4937984;29;20048;-76
2022/07/30 00:23:19;;;;;;;16.60;9.60;;;14.70;99.90;;;;;;4954803;29;20081;-75
2022/07/30 00:25:45;;;;;;;13.23;9.82;;;14.70;99.90;;;;;;4939221;29;20059;-75
2022/07/30 00:28:11;;;;;;;17.42;9.85;;;14.60;99.90;;;;;;4954154;29;20066;-75
2022/07/30 00:30:37;;;;;;;16.63;9.90;;;14.60;99.90;;;;;;4954339;29;20047;-75
2022/07/30 00:33:03;;;;;;;18.83;9.73;;;14.60;99.90;;;;;;4955798;29;20071;-79
2022/07/30 00:35:29;;;;;;;14.68;8.80;;;14.70;99.90;;;;;;4954378;29;20050;-78
2022/07/30 00:37:54;;;;;;;18.42;10.10;;;14.70;99.90;;;;;;4955771;29;20054;-76
2022/07/30 00:40:20;;;;;;;14.35;9.32;;;14.70;99.90;;;;;;4954815;29;20051;-76
2022/07/30 00:42:47;;;;;;;15.35;10.20;;;14.70;99.90;;;;;;4957886;29;20126;-76
2022/07/30 00:45:14;;;;;;;14.98;8.98;;;14.70;99.90;;;;;;4959162;29;20051;-75
2022/07/30 00:47:41;;;;;;;17.20;9.77;;;14.70;99.90;;;;;;4955617;29;20066;-76
2022/07/30 00:50:09;;;;;;;20.42;9.70;;;14.60;99.90;;;;;;4955571;29;20065;-76
2022/07/30 00:52:39;;;;;;;17.40;9.57;;;14.60;99.90;;;;;;4953692;29;20491;-76
2022/07/30 00:55:07;;;;;;;14.85;9.55;;;14.60;99.90;;;;;;4953956;29;20510;-78
2022/07/30 00:57:33;;;;;;;13.90;9.02;;;14.50;99.90;;;;;;4953563;29;20057;-75
2022/07/30 00:59:59;;;;;;;15.30;8.98;;;14.50;99.90;;;;;;4954503;29;20129;-75
2022/07/30 01:02:25;;;;;;;15.73;9.15;;;14.50;99.90;;;;;;4955667;28;20039;-75
2022/07/30 01:04:50;;;;;;;14.65;9.90;;;14.40;99.90;;;;;;4954847;28;20536;-75
2022/07/30 01:07:16;;;;;;;18.65;10.18;;;14.40;99.90;;;;;;4954753;28;20046;-77
2022/07/30 01:09:42;;;;;;;15.88;9.73;;;14.30;99.90;;;;;;4954813;28;20134;-76
2022/07/30 01:12:09;;;;;;;18.60;10.30;;;14.20;99.90;;;;;;4954270;28;20043;-80
2022/07/30 01:14:36;;;;;;;16.30;10.75;;;14.20;99.90;;;;;;4953433;29;20047;-75
2022/07/30 01:17:03;;;;;;;18.55;11.10;;;14.20;99.90;;;;;;4953720;29;20102;-75
2022/07/30 01:19:52;;;;;;;21.48;11.40;;;14.10;99.90;;;;;;4955058;28;20074;-75
2022/07/30 01:22:29;;;;;;;20.92;12.82;;;14.10;99.90;;;;;;4954938;29;20058;-77
2022/07/30 01:25:30;;;;;;;19.80;12.35;;;13.90;99.90;;;;;;4953417;29;20043;-75
2022/07/30 01:28:00;;;;;;;19.80;12.38;;;14.00;99.90;;;;;;4954209;28;20436;-74
2022/07/30 01:30:29;;;;;;;15.65;10.82;;;13.90;99.90;;;;;;4953164;29;20484;-75
2022/07/30 01:32:57;;;;;;;14.60;10.27;;;13.90;99.90;;;;;;4954036;28;20511;-74
2022/07/30 01:35:26;;;;;;;13.10;9.27;;;13.80;99.90;;;;;;4937336;29;20051;-79
2022/07/30 01:37:54;;;;;;;15.02;9.95;;;13.70;99.90;;;;;;4954463;28;20051;-75
2022/07/30 01:40:21;;;;;;;13.60;9.57;;;13.60;99.90;;;;;;4954522;28;20078;-75
2022/07/30 01:42:48;;;;;;;;;;;13.60;99.90;;;;;;4953324;29;20542;-74
2022/07/30 01:45:16;;;;;;;16.98;10.57;;;13.50;99.90;;;;;;4953179;29;20362;-74
2022/07/30 01:47:44;;;;;;;15.82;10.55;;;13.50;99.90;;;;;;4953275;29;20043;-75
2022/07/30 01:50:13;;;;;;;16.85;11.23;;;13.50;99.90;;;;;;4952796;29;20090;-75
2022/07/30 01:52:42;;;;;;;19.98;11.52;;;13.50;99.90;;;;;;4953085;29;20093;-75
2022/07/30 01:55:11;;;;;;;21.20;12.18;;;13.50;99.90;;;;;;4953412;29;20040;-75
2022/07/30 01:57:38;;;;;;;18.23;12.07;;;13.50;99.90;;;;;;4953071;29;20188;-76
2022/07/30 02:00:06;;;;;;;19.40;12.13;;;13.50;99.90;;;;;;4953480;29;20496;-75
2022/07/30 02:02:35;;;;;;;18.92;12.35;;;13.50;99.90;;;;;;4954667;28;20048;-75
2022/07/30 02:05:01;;;;;;;22.83;14.23;;;13.50;99.90;;;;;;4953563;29;20047;-75
2022/07/30 02:07:37;;;;;;;21.73;13.45;;;13.50;99.90;;;;;;4952966;29;20051;-77
2022/07/30 02:10:11;;;;;;;19.73;13.15;;;13.40;99.90;;;;;;4954500;28;20055;-75
2022/07/30 02:12:45;;;;;;;14.80;10.65;;;13.40;99.90;;;;;;4954513;28;20047;-75
2022/07/30 02:15:16;;;;;;;17.08;11.02;;;13.30;99.90;;;;;;4953474;29;20143;-74
2022/07/30 02:17:52;;;;;;;18.65;11.68;;;13.30;99.90;;;;;;4953101;29;20067;-74
2022/07/30 02:20:20;;;;;;;16.40;10.98;;;13.20;99.90;;;;;;4937423;29;20047;-76
2022/07/30 02:22:47;;;;;;;18.80;12.45;;;13.20;99.90;;;;;;4953178;29;20039;-75
2022/07/30 02:25:17;;;;;;;16.38;11.52;;;13.20;99.90;;;;;;4953275;29;20094;-76
2022/07/30 02:27:47;;;;;;;16.45;11.50;;;13.20;99.90;;;;;;4937218;29;20046;-75
2022/07/30 02:30:14;;;;;;;19.27;11.57;;;13.20;99.90;;;;;;4954321;28;20055;-75
2022/07/30 02:32:42;;;;;;;;;;;13.20;99.90;;;;;;4954850;28;20074;-76
2022/07/30 02:35:16;;;;;;;19.13;12.43;;;13.20;99.90;;;;;;4953988;29;19922;-75
2022/07/30 02:37:44;;;;;;;20.92;12.38;;;13.20;99.90;;;;;;4953808;28;20047;-75
2022/07/30 02:40:14;;;;;;;24.20;13.15;;;13.20;99.90;;;;;;4957303;28;20091;-75
2022/07/30 02:42:44;;;;;;;20.10;12.75;;;13.10;99.90;;;;;;4956972;29;20145;-75
2022/07/30 02:45:11;;;;;;;20.52;12.35;;;13.10;99.90;;;;;;4957775;28;20092;-77
2022/07/30 02:47:39;;;;;;;22.33;12.60;;;13.10;99.90;;;;;;4956260;29;20070;-76
2022/07/30 02:50:06;;;;;;;21.75;12.35;;;13.10;99.90;;;;;;4957561;28;20063;-76
2022/07/30 02:52:34;;;;;;;19.35;12.13;;;13.00;99.90;;;;;;4956471;29;20146;-76
2022/07/30 02:55:04;;;;;;;21.75;13.52;;;13.00;99.90;;;;;;4940443;29;20428;-76
2022/07/30 02:57:31;;;;;;;19.48;13.20;;;13.00;99.90;;;;;;4956671;29;20070;-77
2022/07/30 02:59:59;;;;;;;19.92;13.00;;;12.90;99.90;;;;;;4957689;28;20123;-77
2022/07/30 03:02:25;;;;;;;24.42;13.60;;;12.90;99.90;;;;;;4939905;29;20047;-76
2022/07/30 03:04:52;;;;;;;23.67;13.90;;;13.00;99.90;;;;;;4957660;28;20063;-76
2022/07/30 03:07:20;;;;;;;21.52;13.05;;;12.90;99.90;;;;;;4956853;29;20295;-77
2022/07/30 03:09:46;;;;;;;19.08;12.60;;;12.90;99.90;;;;;;4956890;28;20058;-75
2022/07/30 03:12:13;;;;;;;20.45;12.73;;;12.90;99.90;;;;;;4957776;28;20467;-74
2022/07/30 03:14:39;;;;;;;29.27;16.30;;;12.90;99.90;;;;;;4956951;29;20061;-75
2022/07/30 03:17:07;;;;;;;25.73;14.43;;;12.90;99.90;;;;;;4958029;28;20058;-75
2022/07/30 03:19:37;;;;;;;26.73;14.93;;;12.90;99.90;;;;;;4957059;29;20058;-76
2022/07/30 03:22:06;;;;;;;23.35;14.63;;;12.90;99.90;;;;;;4956376;29;20058;-75
2022/07/30 03:24:33;;;;;;;31.15;16.20;;;13.00;99.90;;;;;;4956345;29;20055;-75
2022/07/30 03:27:02;;;;;;;24.83;15.55;;;13.00;99.90;;;;;;4956042;29;20051;-75
2022/07/30 03:29:29;;;;;;;22.73;14.73;;;13.00;99.90;;;;;;4939583;29;20059;-74
2022/07/30 03:31:56;;;;;;;29.15;16.33;;;13.00;99.90;;;;;;4956587;28;20047;-77
2022/07/30 03:34:22;;;;;;;25.85;15.02;;;13.00;99.90;;;;;;4939363;29;20152;-77
2022/07/30 03:36:49;;;;;;;22.92;14.93;;;13.10;99.90;;;;;;4955414;29;20154;-76
2022/07/30 03:39:15;;;;;;;25.20;16.10;;;13.20;99.90;;;;;;4959611;29;20482;-78
2022/07/30 03:41:42;;;;;;;30.60;17.77;;;13.30;99.90;;;;;;4946463;29;20059;-78
2022/07/30 03:44:09;;;;;;;26.20;16.42;;;13.40;99.90;;;;;;4960314;29;20048;-78
2022/07/30 03:46:36;;;;;;;28.38;16.65;;;13.40;99.90;;;;;;4956331;29;20075;-77
2022/07/30 03:49:02;;;;;;;;;;;13.50;99.90;;;;;;4956603;29;20055;-77
2022/07/30 03:51:28;;;;;;;36.28;16.25;;;13.60;99.90;;;;;;4956397;28;20018;-76
2022/07/30 03:53:54;;;;;;;35.05;17.88;;;13.70;99.90;;;;;;4955017;29;20129;-77
2022/07/30 03:56:20;;;;;;;32.03;17.55;;;13.90;99.90;;;;;;4955170;29;20102;-76
2022/07/30 03:58:47;;;;;;;34.05;17.40;;;13.90;99.90;;;;;;4940041;29;20054;-75
2022/07/30 04:01:12;;;;;;;49.17;16.67;;;14.00;99.90;;;;;;4938858;29;20051;-75
2022/07/30 04:03:38;;;;;;;35.92;17.55;;;14.10;99.90;;;;;;4954752;29;20058;-77
2022/07/30 04:06:04;;;;;;;32.22;17.08;;;14.20;99.90;;;;;;4938673;29;20138;-76
2022/07/30 04:08:30;;;;;;;51.45;15.88;;;14.30;99.90;;;;;;4956016;28;20062;-77
2022/07/30 04:10:56;;;;;;;30.25;16.52;;;14.30;99.90;;;;;;4955043;29;20051;-77
2022/07/30 04:13:22;;;;;;;66.05;14.60;;;14.50;99.90;;;;;;4956061;28;20086;-78
2022/07/30 04:16:29;;;;;;;67.22;14.35;;;14.50;99.90;;;;;;4955579;29;20130;-77
2022/07/30 04:18:57;;;;;;;62.08;13.23;;;14.60;99.90;;;;;;4904369;28;20492;-78
2022/07/30 04:21:25;;;;;;;51.88;12.73;;;14.70;99.90;;;;;;4923466;29;20047;-76
2022/07/30 04:23:53;;;;;;;36.40;12.85;;;14.80;99.90;;;;;;4923020;29;20059;-75
2022/07/30 04:26:20;;;;;;;35.33;12.55;;;14.80;99.90;;;;;;4955652;28;20062;-76
2022/07/30 04:28:46;;;;;;;41.80;12.73;;;14.90;99.90;;;;;;4954873;29;20415;-79
2022/07/30 04:31:12;;;;;;;25.92;12.30;;;14.90;99.90;;;;;;4941642;29;20507;-78
2022/07/30 04:33:38;;;;;;;29.50;12.80;;;14.90;99.90;;;;;;4955422;28;20047;-77
2022/07/30 04:36:08;;;;;;;33.20;13.15;;;15.00;99.90;;;;;;4938514;29;20058;-78
2022/07/30 04:38:34;;;;;;;37.35;12.52;;;15.00;99.90;;;;;;4955223;28;20078;-78
2022/07/30 04:41:00;;;;;;;22.17;12.25;;;15.10;99.90;;;;;;4955018;28;20419;-78
2022/07/30 04:43:26;;;;;;;35.53;13.00;;;15.10;99.90;;;;;;4954142;29;20110;-78
2022/07/30 04:45:52;;;;;;;30.23;11.93;;;15.20;99.90;;;;;;4955311;28;20121;-78
2022/07/30 04:48:17;;;;;;;28.13;12.48;;;15.30;99.90;;;;;;4955324;28;20091;-78
2022/07/30 04:50:47;;;;;;;25.13;12.45;;;15.30;99.90;;;;;;4937580;29;20541;-79
2022/07/30 04:53:14;;;;;;;54.45;12.38;;;15.40;99.90;;;;;;4955037;28;20126;-78
2022/07/30 04:55:44;;;;;;;28.60;11.77;;;15.40;99.90;;;;;;4954227;29;20483;-78
2022/07/30 04:58:11;;;;;;;41.53;11.68;;;15.50;99.90;;;;;;4954802;29;20090;-78
2022/07/30 05:00:38;;;;;;;40.22;13.25;;;15.60;99.90;;;;;;4938666;29;20051;-78
2022/07/30 05:03:07;;;;;;;43.70;12.82;;;15.60;99.90;;;;;;4954625;28;20135;-78
2022/07/30 05:05:34;;;;;;;37.63;11.77;;;15.60;99.90;;;;;;4953392;29;20491;-78
2022/07/30 05:08:00;;;;;;;;;;;15.60;99.90;;;;;;4955817;28;20055;-79
2022/07/30 05:10:26;;;;;;;53.42;11.80;;;15.70;99.90;;;;;;4938071;29;19943;-78
2022/07/30 05:12:52;;;;;;;24.27;10.80;;;15.70;99.90;;;;;;4953970;29;20145;-78
2022/07/30 05:15:18;;;;;;;45.00;11.38;;;15.70;99.90;;;;;;4954203;29;20099;-77
2022/07/30 05:17:44;;;;;;;51.45;11.50;;;15.80;99.90;;;;;;4939312;29;20055;-78
2022/07/30 05:20:11;;;;;;;65.40;11.02;;;15.90;99.90;;;;;;4921761;29;20051;-79
2022/07/30 05:22:37;;;;;;;50.58;10.73;;;16.00;99.90;;;;;;4954126;29;20061;-80
2022/07/30 05:25:04;;;;;;;32.97;11.35;;;16.00;99.90;;;;;;4938004;29;20134;-76
2022/07/30 05:27:29;;;;;;;48.33;13.05;;;16.00;99.90;;;;;;4938391;29;20055;-77
2022/07/30 05:29:55;;;;;;;26.58;12.30;;;16.00;99.90;;;;;;4953804;29;20212;-77
2022/07/30 05:32:21;;;;;;;34.15;11.70;;;16.00;99.90;;;;;;4954966;28;20043;-77
2022/07/30 05:34:47;;;;;;;32.83;11.60;;;16.10;99.90;;;;;;4954320;29;20122;-77
2022/07/30 05:37:13;;;;;;;42.72;13.23;;;16.20;99.90;;;;;;4954580;28;20290;-79
2022/07/30 05:39:38;;;;;;;37.70;11.77;;;16.30;99.90;;;;;;4954890;28;20063;-80
2022/07/30 05:42:04;;;;;;;28.50;12.65;;;16.30;99.90;;;;;;4955440;28;20056;-78
2022/07/30 05:44:30;;;;;;;48.93;12.93;;;16.40;99.90;;;;;;4938232;29;20047;-77
2022/07/30 05:46:55;;;;;;;102.10;13.38;;;16.50;99.90;;;;;;4954173;29;20122;-78
2022/07/30 05:49:21;;;;;;;54.80;13.00;;;16.60;99.90;;;;;;4955611;28;20484;-77
2022/07/30 05:51:47;;;;;;;52.78;13.80;;;16.70;99.90;;;;;;4953251;28;20059;-78
2022/07/30 05:54:13;;;;;;;71.30;14.35;;;16.70;99.90;;;;;;4954556;28;20190;-76
2022/07/30 05:56:40;;;;;;;41.50;12.32;;;16.80;99.90;;;;;;4940095;29;20055;-82
2022/07/30 05:59:05;;;;;;;;;;;16.80;99.90;;;;;;4953916;29;20054;-78
2022/07/30 06:01:31;;;;;;;26.77;12.03;;;16.90;99.90;;;;;;4954124;29;19922;-77
2022/07/30 06:03:57;;;;;;;35.25;12.98;;;17.00;99.90;;;;;;4953776;29;20298;-77
2022/07/30 06:06:23;;;;;;;33.53;12.88;;;16.90;99.90;;;;;;4954622;28;20047;-77
2022/07/30 06:08:49;;;;;;;32.57;13.00;;;17.00;99.90;;;;;;4954832;28;20043;-77
2022/07/30 06:11:15;;;;;;;48.53;12.83;;;17.10;99.90;;;;;;4953929;29;20476;-76
2022/07/30 06:13:41;;;;;;;25.53;12.03;;;17.10;99.90;;;;;;4953856;28;20047;-81
2022/07/30 06:16:06;;;;;;;24.52;13.48;;;17.20;99.90;;;;;;4957022;29;20283;-76
2022/07/30 06:18:32;;;;;;;26.13;12.80;;;17.10;99.90;;;;;;4957182;29;20106;-76
2022/07/30 06:20:58;;;;;;;22.92;11.80;;;17.10;99.90;;;;;;4958289;28;20043;-77
2022/07/30 06:23:24;;;;;;;42.90;12.18;;;17.20;99.90;;;;;;4941313;29;20080;-76
2022/07/30 06:25:49;;;;;;;23.97;12.60;;;17.30;99.90;;;;;;4957294;29;20414;-78
2022/07/30 06:28:17;;;;;;;31.27;12.53;;;17.30;99.90;;;;;;4959602;28;20047;-78
2022/07/30 06:30:47;;;;;;;27.05;11.57;;;17.40;99.90;;;;;;4957097;29;20070;-81
2022/07/30 06:33:14;;;;;;;24.40;10.82;;;17.50;99.90;;;;;;4942638;29;20131;-77
2022/07/30 06:35:40;;;;;;;22.88;11.75;;;17.50;99.90;;;;;;4958212;29;20110;-75
2022/07/30 06:38:06;;;;;;;19.83;11.20;;;17.50;99.90;;;;;;4933834;29;20055;-77
2022/07/30 06:40:32;;;;;;;22.47;11.07;;;17.50;99.90;;;;;;4966516;29;20057;-76
2022/07/30 06:42:58;;;;;;;25.87;12.00;;;17.50;99.90;;;;;;4961110;28;20055;-76
2022/07/30 06:45:23;;;;;;;27.87;11.90;;;17.50;99.90;;;;;;4941457;29;20053;-79
2022/07/30 06:47:49;;;;;;;24.43;12.67;;;17.60;99.90;;;;;;4957198;29;20057;-77
2022/07/30 06:50:17;;;;;;;26.15;12.55;;;17.70;99.90;;;;;;4957915;28;20506;-78
2022/07/30 06:52:43;;;;;;;22.25;11.80;;;17.90;99.90;;;;;;4959506;28;20372;-77
2022/07/30 06:55:09;;;;;;;19.83;11.83;;;18.10;99.90;;;;;;4942337;29;20050;-76
2022/07/30 06:57:35;;;;;;;29.33;13.23;;;18.10;99.90;;;;;;4959148;28;20126;-79
2022/07/30 07:00:00;;;;;;;25.03;12.03;;;18.20;99.90;;;;;;4957233;29;20051;-78
2022/07/30 07:02:26;;;;;;;22.25;12.25;;;18.20;99.90;;;;;;4957604;29;20436;-77
2022/07/30 07:04:52;;;;;;;23.47;11.97;;;18.30;99.90;;;;;;4957557;29;20125;-76
2022/07/30 07:07:18;;;;;;;25.38;12.98;;;18.20;99.90;;;;;;4956863;29;20063;-76
2022/07/30 07:09:44;;;;;;;24.53;12.83;;;18.40;99.90;;;;;;4940900;29;20043;-76
2022/07/30 07:12:10;;;;;;;26.30;12.40;;;18.40;99.90;;;;;;4957611;29;20047;-76
2022/07/30 07:14:35;;;;;;;22.57;12.47;;;18.40;99.90;;;;;;4941573;29;20047;-77
2022/07/30 07:17:02;;;;;;;28.43;13.50;;;18.30;99.90;;;;;;4958559;28;20123;-75
2022/07/30 07:19:27;;;;;;;24.80;13.23;;;18.30;99.90;;;;;;4958448;28;20348;-79
2022/07/30 07:21:53;;;;;;;26.53;13.50;;;18.30;99.90;;;;;;4941491;29;20047;-76
2022/07/30 07:24:19;;;;;;;22.37;12.73;;;18.30;99.90;;;;;;4959371;28;20159;-77
2022/07/30 07:26:45;;;;;;;21.80;13.07;;;18.40;99.90;;;;;;4964549;28;20054;-74
2022/07/30 07:29:10;;;;;;;23.33;12.43;;;18.60;99.90;;;;;;4962051;28;20047;-76
2022/07/30 07:31:36;;;;;;;23.70;12.53;;;18.80;99.90;;;;;;4966026;29;20443;-76
2022/07/30 07:34:02;;;;;;;24.57;11.43;;;19.10;99.90;;;;;;4968476;28;20075;-77
2022/07/30 07:36:29;;;;;;;23.10;11.73;;;19.30;99.90;;;;;;4965907;29;20051;-76
2022/07/30 07:38:54;;;;;;;;;;;19.30;99.90;;;;;;4967016;28;20122;-77
2022/07/30 07:41:20;;;;;;;21.37;10.07;;;19.20;99.90;;;;;;4966610;29;20295;-76
2022/07/30 07:43:46;;;;;;;23.47;10.80;;;19.10;99.90;;;;;;4943681;29;20051;-79
2022/07/30 07:46:15;;;;;;;19.40;9.43;;;19.20;99.90;;;;;;4934543;29;20106;-77
2022/07/30 07:48:42;;;;;;;19.50;9.60;;;19.10;99.90;;;;;;4964588;29;20346;-80
2022/07/30 07:51:07;;;;;;;17.27;8.88;;;19.30;99.90;;;;;;4966547;29;20055;-76
2022/07/30 07:53:33;;;;;;;16.50;9.03;;;19.40;99.90;;;;;;4967894;29;20542;-76
2022/07/30 07:55:59;;;;;;;22.53;8.07;;;19.60;99.90;;;;;;4944987;29;20539;-76
2022/07/30 07:58:25;;;;;;;14.67;8.13;;;19.60;99.90;;;;;;4961065;29;20055;-76
2022/07/30 08:00:51;;;;;;;14.87;7.93;;;19.70;99.90;;;;;;4963789;28;20044;-77
2022/07/30 08:03:17;;;;;;;14.23;7.73;;;19.70;99.90;;;;;;4964244;29;20091;-77
2022/07/30 08:05:42;;;;;;;14.50;7.17;;;19.80;99.90;;;;;;4963640;29;20087;-77
2022/07/30 08:08:08;;;;;;;17.00;6.83;;;19.90;99.90;;;;;;4963616;29;20039;-77
2022/07/30 08:10:34;;;;;;;14.83;6.63;;;19.90;99.90;;;;;;4963322;29;20047;-76
2022/07/30 08:13:02;;;;;;;20.50;6.60;;;20.00;99.90;;;;;;4962859;28;20055;-76
2022/07/30 08:15:28;;;;;;;15.23;6.70;;;20.10;99.90;;;;;;4962496;29;20453;-80
2022/07/30 08:17:54;;;;;;;20.50;6.83;;;20.30;99.90;;;;;;4961835;29;20055;-78
2022/07/30 08:20:21;;;;;;;12.00;6.63;;;20.40;99.90;;;;;;4942564;29;20058;-77
2022/07/30 08:22:47;;;;;;;12.90;5.78;;;20.60;99.90;;;;;;4957140;29;20126;-76
2022/07/30 08:25:13;;;;;;;13.00;5.23;;;20.50;99.90;;;;;;4958475;28;20055;-80
2022/07/30 08:27:38;;;;;;;13.37;5.70;;;20.30;99.90;;;;;;4941948;29;20052;-78
2022/07/30 08:30:06;;;;;;;12.77;5.13;;;20.30;99.90;;;;;;4940973;29;20047;-76
2022/07/30 08:32:31;;;;;;;11.50;5.13;;;20.30;99.90;;;;;;4956078;29;20109;-77
2022/07/30 08:34:57;;;;;;;11.70;4.13;;;20.40;99.90;;;;;;4958069;28;20047;-78
2022/07/30 08:37:23;;;;;;;11.73;4.30;;;20.70;99.90;;;;;;4956457;28;20062;-77
2022/07/30 08:39:49;;;;;;;10.50;4.30;;;20.90;99.90;;;;;;4958576;28;20054;-75
2022/07/30 08:42:15;;;;;;;10.43;4.53;;;20.90;99.90;;;;;;4955148;29;20341;-76
2022/07/30 08:44:45;;;;;;;12.10;4.55;;;20.70;99.90;;;;;;4955931;28;20054;-75
2022/07/30 08:47:17;;;;;;;13.63;4.82;;;20.90;99.90;;;;;;4956704;28;20412;-76
2022/07/30 08:49:45;;;;;;;13.85;4.50;;;21.10;99.90;;;;;;4956485;28;20073;-77
2022/07/30 08:52:11;;;;;;;13.23;4.30;;;21.00;99.90;;;;;;4955022;29;20357;-78
2022/07/30 08:54:37;;;;;;;9.32;4.43;;;21.00;99.90;;;;;;4954977;29;20472;-78
2022/07/30 08:57:04;;;;;;;12.70;4.07;;;21.10;99.90;;;;;;4955527;29;20055;-77
2022/07/30 08:59:31;;;;;;;12.35;4.38;;;21.20;99.90;;;;;;4956235;29;20051;-76
2022/07/30 09:01:57;;;;;;;12.13;4.32;;;21.20;99.90;;;;;;4923995;29;20588;-75
2022/07/30 09:04:23;;;;;;;11.50;3.80;;;21.40;99.90;;;;;;4956224;29;20043;-77
2022/07/30 09:06:49;;;;;;;8.67;3.87;;;21.40;99.90;;;;;;4939241;29;20061;-77
2022/07/30 09:09:15;;;;;;;11.13;3.33;;;21.60;99.90;;;;;;4955183;29;20043;-78
2022/07/30 09:11:41;;;;;;;9.77;3.85;;;21.70;99.90;;;;;;4954558;29;20083;-76
2022/07/30 09:14:12;;;;;;;10.27;3.63;;;21.80;99.90;;;;;;4954770;29;20051;-80
2022/07/30 09:16:38;;;;;;;8.63;3.70;;;21.90;99.90;;;;;;4954936;29;20097;-78
2022/07/30 09:19:14;;;;;;;11.48;3.88;;;21.80;99.90;;;;;;4957480;29;20110;-81
2022/07/30 09:21:40;;;;;;;10.55;3.95;;;21.90;99.90;;;;;;4954483;29;20200;-75
2022/07/30 09:24:09;;;;;;;10.80;4.47;;;22.00;99.90;;;;;;4940287;29;20455;-78
2022/07/30 09:26:54;;;;;;;11.13;4.13;;;22.00;99.90;;;;;;4956252;28;20095;-77
2022/07/30 09:29:32;;;;;;;11.15;4.45;;;22.00;99.90;;;;;;4957363;29;20375;-81
2022/07/30 09:32:01;;;;;;;12.90;4.35;;;22.20;99.90;;;;;;4955417;29;20050;-80
2022/07/30 09:34:38;;;;;;;11.35;4.43;;;22.30;99.90;;;;;;4957416;29;20133;-78
2022/07/30 09:37:09;;;;;;;14.00;4.80;;;22.10;99.90;;;;;;4961084;28;20047;-78
2022/07/30 09:39:37;;;;;;;13.52;4.82;;;21.90;99.90;;;;;;4960342;29;20144;-78
2022/07/30 09:42:16;;;;;;;9.55;4.47;;;21.80;99.90;;;;;;4957784;29;20124;-79
2022/07/30 09:44:43;;;;;;;10.38;4.63;;;23.00;99.90;;;;;;4955706;29;20055;-78
2022/07/30 09:47:08;;;;;;;13.18;4.45;;;21.90;99.90;;;;;;4956838;28;20134;-82
2022/07/30 09:49:36;;;;;;;11.77;4.60;;;21.90;99.90;;;;;;4942618;29;20051;-80
2022/07/30 09:52:01;;;;;;;11.23;3.90;;;21.90;99.90;;;;;;4962186;29;20145;-79
2022/07/30 09:54:47;;;;;;;11.27;4.53;;;;;;;;;;4945907;29;20073;-78
2022/07/30 09:57:13;;;;;;;12.98;4.50;;;22.00;99.90;;;;;;4942233;29;20097;-79
2022/07/30 09:59:39;;;;;;;12.10;3.80;;;22.00;99.90;;;;;;4959096;29;20090;-78
2022/07/30 10:02:04;;;;;;;10.33;4.33;;;22.10;99.90;;;;;;4942279;29;20051;-79
2022/07/30 10:04:31;;;;;;;13.17;3.70;;;22.30;99.90;;;;;;4957504;29;20506;-75
2022/07/30 10:06:58;;;;;;;;;;;22.40;99.90;;;;;;4958425;29;20082;-77
2022/07/30 10:09:26;;;;;;;8.10;3.47;;;22.40;99.90;;;;;;4959309;29;19923;-79
2022/07/30 10:11:54;;;;;;;11.57;3.70;;;22.30;99.90;;;;;;4959050;29;20051;-76
2022/07/30 10:14:22;;;;;;;10.05;3.67;;;22.00;99.90;;;;;;4959729;29;20050;-76
2022/07/30 10:16:50;;;;;;;10.10;3.78;;;21.90;99.90;;;;;;4928216;29;20055;-77
2022/07/30 10:19:17;;;;;;;7.15;3.17;;;22.00;99.90;;;;;;4960917;29;20075;-76
2022/07/30 10:21:44;;;;;;;9.32;3.47;;;22.00;99.90;;;;;;4960598;29;20050;-76
2022/07/30 10:24:11;;;;;;;9.53;3.63;;;22.20;99.90;;;;;;4959312;29;20047;-78
2022/07/30 10:26:38;;;;;;;8.65;3.25;;;22.30;99.90;;;;;;4957447;29;20342;-77
2022/07/30 10:29:04;;;;;;;;;;;22.50;99.90;;;;;;4957592;29;20051;-79
2022/07/30 10:31:30;;;;;;;16.10;3.65;;;22.70;99.90;;;;;;4942579;29;19926;-78
2022/07/30 10:33:56;;;;;;;10.55;3.30;;;23.20;99.90;;;;;;4960226;28;20101;-80
2022/07/30 10:36:24;;;;;;;7.22;2.70;;;23.20;99.90;;;;;;4959656;29;20043;-78
2022/07/30 10:38:51;;;;;;;8.15;3.15;;;23.30;99.90;;;;;;4957862;29;20081;-78
2022/07/30 10:41:23;;;;;;;13.82;3.25;;;23.50;99.90;;;;;;4941471;29;20463;-79
2022/07/30 10:44:03;;;;;;;9.13;2.97;;;23.60;99.90;;;;;;4959058;29;20103;-79
2022/07/30 10:46:48;;;;;;;12.52;3.78;;;23.60;99.90;;;;;;4959118;29;20130;-80
2022/07/30 10:49:16;;;;;;;8.40;3.35;;;23.60;99.90;;;;;;4960759;28;20499;-78
2022/07/30 10:51:53;;;;;;;14.32;3.53;;;23.50;99.90;;;;;;4957085;29;20059;-77
2022/07/30 10:54:55;;;;;;;12.23;3.65;;;23.30;99.90;;;;;;4957383;29;20078;-77
2022/07/30 10:57:20;;;;;;;10.77;3.00;;;23.40;99.90;;;;;;4902056;29;20473;-74
2022/07/30 10:59:54;;;;;;;6.83;2.60;;;23.50;99.90;;;;;;4949498;28;20047;-76
2022/07/30 11:02:24;;;;;;;9.15;2.60;;;23.40;99.90;;;;;;4957570;29;20591;-76
2022/07/30 11:05:16;;;;;;;11.20;2.50;;;23.50;99.90;;;;;;4958263;29;20046;-76
2022/07/30 11:07:42;;;;;;;8.43;2.72;;;23.60;99.90;;;;;;4956746;29;20062;-77
2022/07/30 11:10:33;;;;;;;5.87;2.37;;;23.50;99.90;;;;;;4959606;29;20396;-77
2022/07/30 11:12:58;;;;;;;8.32;2.45;;;23.70;99.90;;;;;;4958668;29;20097;-78
2022/07/30 11:15:58;;;;;;;15.87;2.73;;;23.90;99.90;;;;;;4941156;29;20063;-79
2022/07/30 11:18:27;;;;;;;9.35;2.30;;;24.00;99.40;;;;;;4942011;29;20504;-76
2022/07/30 11:21:13;;;;;;;7.10;2.22;;;24.10;99.90;;;;;;4960687;29;20047;-83
2022/07/30 11:23:39;;;;;;;9.13;2.35;;;24.40;99.20;;;;;;4963766;28;20043;-82
2022/07/30 11:26:09;;;;;;;7.50;2.38;;;24.40;98.60;;;;;;4962041;29;20098;-80
2022/07/30 11:28:39;;;;;;;7.43;2.20;;;24.30;98.00;;;;;;4945087;29;20110;-79
2022/07/30 11:31:28;;;;;;;7.68;2.00;;;24.40;98.60;;;;;;4960193;29;20090;-79
2022/07/30 11:34:19;;;;;;;8.45;1.88;;;24.60;98.00;;;;;;4961512;29;20054;-82
2022/07/30 11:37:08;;;;;;;8.13;2.50;;;24.60;97.60;;;;;;4968687;29;20112;-78
2022/07/30 11:39:52;;;;;;;8.38;1.90;;;24.40;97.10;;;;;;4953111;29;20135;-80
2022/07/30 11:42:36;;;;;;;7.18;2.20;;;24.30;96.20;;;;;;4968386;28;20053;-82
2022/07/30 11:45:14;;;;;;;6.93;2.10;;;24.20;96.10;;;;;;4968097;29;20096;-81
2022/07/30 11:47:47;;;;;;;6.43;2.10;;;24.30;96.40;;;;;;4967985;28;20051;-80
2022/07/30 11:50:20;;;;;;;6.07;2.00;;;24.40;96.90;;;;;;4965340;28;20051;-82
2022/07/30 11:52:58;;;;;;;5.32;1.80;;;24.40;96.60;;;;;;4960059;28;20079;-82
2022/07/30 11:55:25;;;;;;;6.88;1.67;;;24.40;96.00;;;;;;4958836;29;20058;-83
2022/07/30 11:57:52;;;;;;;6.00;1.85;;;24.50;95.80;;;;;;4959480;29;20058;-81
2022/07/30 12:00:18;;;;;;;8.70;1.67;;;24.40;95.10;;;;;;4960142;29;20078;-82
2022/07/30 12:02:45;;;;;;;8.90;1.90;;;24.60;95.80;;;;;;4943920;29;20124;-83
2022/07/30 12:05:12;;;;;;;3.85;1.30;;;24.60;95.10;;;;;;4960147;29;20484;-81
2022/07/30 12:07:38;;;;;;;5.55;1.77;;;24.50;94.20;;;;;;4959267;29;20053;-81
2022/07/30 12:10:15;;;;;;;5.80;1.73;;;24.40;93.90;;;;;;4957298;29;20502;-82
2022/07/30 12:12:42;;;;;;;11.45;1.73;;;24.50;94.60;;;;;;4959315;29;20047;-82
2022/07/30 12:15:09;;;;;;;;;;;24.50;94.90;;;;;;4927031;29;20139;-82
2022/07/30 12:17:42;;;;;;;9.10;1.88;;;24.60;95.00;;;;;;4958887;29;19974;-84
2022/07/30 12:20:16;;;;;;;5.50;1.80;;;24.70;94.20;;;;;;4960304;29;20047;-83
2022/07/30 12:22:43;;;;;;;5.53;1.30;;;24.70;94.20;;;;;;4942921;29;20089;-82
2022/07/30 12:25:09;;;;;;;6.88;1.70;;;24.70;93.80;;;;;;4958958;29;20131;-80
2022/07/30 12:27:35;;;;;;;;;;;24.80;94.00;;;;;;4959599;29;20389;-81
2022/07/30 12:30:02;;;;;;;8.48;1.60;;;24.80;93.20;;;;;;4929322;29;19933;-81
2022/07/30 12:32:30;;;;;;;7.25;1.77;;;24.90;93.80;;;;;;4960591;29;20130;-83
2022/07/30 12:34:56;;;;;;;7.63;1.75;;;24.90;92.30;;;;;;4963016;29;20102;-82
2022/07/30 12:37:22;;;;;;;6.28;1.40;;;24.80;92.90;;;;;;4959078;29;20142;-81
2022/07/30 12:39:48;;;;;;;3.92;1.38;;;24.70;91.60;;;;;;4941038;29;20065;-80
2022/07/30 12:42:18;;;;;;;6.70;1.40;;;24.80;92.40;;;;;;4957449;28;20059;-80